Pagina principale
METAR-TAF:

METAR-TAF

Aeroporti :

Aeroporto di Alghero-Fertilia

Alghero, Italia

latitudine: 40-38N, longitudine: 008-17E, altezza: 23 m

Osservazione

Il bollettino è stato emesso 29 minuti fa, alle 14:20 UTC
Vento 13 kt da ovest
Temperature 23°C
Umidità 53%
Pressione 1008 hPa
Visibilità 10 km o più
Poco nuvoloso ad un'altezza di 3500 ft

METAR: LIEA 271420Z 28013KT 9999 FEW035 23/13 Q1008

Ora: 16:49 (14:49 UTC)

Previsione

Il bollettino è stato emesso 3 ore e 49 minuti fa, alle 11:00 UTC
Previsione valida dal 27 alle 12 UTC al 28 alle 12 UTC
Vento 14 kt da ovest
Visibilità 10 km o più
Nubi sparse ad un'altezza di 3000 ft
Temporaneamente
dal 27 alle 12 UTC al 27 alle 17 UTC
Vento 17 kt da ovest con raffiche fino a 28 kt
rovesci di pioggia

TAF: LIEA 271100Z 2712/2812 28014KT 9999 SCT030 TEMPO 2712/2717 28017G28KT SHRA

Osservazioni e previsioni meteorologiche di più di 4000 aeroporti (messaggi METAR e TAF).

Le stazioni disponibili sono rappresentate dai dischi gialli e rossi sulla carta.

Puntare il mouse per vedere il nome della stazione.

Clicca sopra per visualizzare le osservazioni e previsioni meteorologiche.

Per cambiare la mappa : fare clic sui pulsanti verdi con una croce nera per ingrandire, il pulsante verde con un trattino per diminuire, o sulla freccia verde per le mappe adiacenti.


METAR-TAF: